createdAt,value
2022-12-06T00:01:24.833Z,11.63
2022-12-06T00:03:55.851Z,11.85
2022-12-06T00:06:28.609Z,11.13
2022-12-06T00:08:58.590Z,12.13
2022-12-06T00:11:28.590Z,11.77
2022-12-06T00:13:58.493Z,12.25
2022-12-06T00:16:28.077Z,11.70
2022-12-06T00:18:56.956Z,12.38
2022-12-06T00:21:28.369Z,11.98
2022-12-06T00:23:58.713Z,11.50
2022-12-06T00:26:27.904Z,10.95
2022-12-06T00:28:57.582Z,12.15
2022-12-06T00:31:28.231Z,11.25
2022-12-06T00:33:56.567Z,10.57
2022-12-06T00:36:27.845Z,10.60
2022-12-06T00:38:56.280Z,11.32
2022-12-06T00:41:26.198Z,11.90
2022-12-06T00:43:54.738Z,12.10
2022-12-06T00:46:24.971Z,10.48
2022-12-06T00:48:54.668Z,10.00
2022-12-06T00:51:24.394Z,11.55
2022-12-06T00:53:54.160Z,10.30
2022-12-06T00:56:22.494Z,10.73
2022-12-06T00:58:50.746Z,9.30
2022-12-06T01:01:21.600Z,9.85
2022-12-06T01:03:52.258Z,10.57
2022-12-06T01:06:22.838Z,11.20
2022-12-06T01:08:51.210Z,10.40
2022-12-06T01:11:20.826Z,10.40
2022-12-06T01:13:49.690Z,11.00
2022-12-06T01:16:22.175Z,11.27
2022-12-06T01:18:53.599Z,10.43
2022-12-06T01:21:22.551Z,9.70
2022-12-06T01:23:50.849Z,10.55
2022-12-06T01:26:23.297Z,10.05
2022-12-06T01:28:51.681Z,9.60
2022-12-06T01:31:20.592Z,10.60
2022-12-06T01:33:48.855Z,8.82
2022-12-06T01:36:18.488Z,9.80
2022-12-06T01:38:51.115Z,9.45
2022-12-06T01:41:22.015Z,10.60
2022-12-06T01:43:50.638Z,9.60
2022-12-06T01:46:26.201Z,8.73
2022-12-06T01:48:59.843Z,11.27
2022-12-06T01:51:28.868Z,11.32
2022-12-06T01:53:57.341Z,11.10
2022-12-06T01:56:27.090Z,10.15
2022-12-06T01:58:58.492Z,10.70
2022-12-06T02:01:29.386Z,11.02
2022-12-06T02:04:00.051Z,11.30
2022-12-06T02:06:30.239Z,10.23
2022-12-06T02:09:00.457Z,12.30
2022-12-06T02:11:34.946Z,10.07
2022-12-06T02:14:06.328Z,10.93
2022-12-06T02:16:50.835Z,10.88
2022-12-06T02:19:44.253Z,10.85
2022-12-06T02:22:22.108Z,10.80
2022-12-06T02:25:01.916Z,10.35
2022-12-06T02:27:59.373Z,11.10
2022-12-06T02:30:46.356Z,10.10
2022-12-06T02:33:23.512Z,10.25
2022-12-06T02:35:57.685Z,11.02
2022-12-06T02:38:34.354Z,9.48
2022-12-06T02:41:08.628Z,11.27
2022-12-06T02:43:42.138Z,11.23
2022-12-06T02:46:15.242Z,10.27
2022-12-06T02:48:46.036Z,9.63
2022-12-06T02:51:18.329Z,11.07
2022-12-06T02:53:50.624Z,9.48
2022-12-06T02:56:20.348Z,9.18
2022-12-06T02:58:48.757Z,10.18
2022-12-06T03:01:21.187Z,9.95
2022-12-06T03:04:31.686Z,9.52
2022-12-06T03:07:11.315Z,9.60
2022-12-06T03:09:52.028Z,10.65
2022-12-06T03:12:30.341Z,11.25
2022-12-06T03:15:07.933Z,8.40
2022-12-06T03:17:43.621Z,10.35
2022-12-06T03:20:15.488Z,9.85
2022-12-06T03:22:47.537Z,9.25
2022-12-06T03:25:17.517Z,9.30
2022-12-06T03:27:47.890Z,7.55
2022-12-06T03:30:17.219Z,7.50
2022-12-06T03:32:50.371Z,8.60
2022-12-06T03:35:22.992Z,8.52
2022-12-06T03:37:56.937Z,7.57
2022-12-06T03:40:30.046Z,8.13
2022-12-06T03:42:58.927Z,6.93
2022-12-06T03:45:34.729Z,6.78
2022-12-06T03:48:11.067Z,7.63
2022-12-06T03:50:43.120Z,7.32
2022-12-06T03:53:11.506Z,7.63
2022-12-06T03:55:39.643Z,7.25
2022-12-06T03:58:08.020Z,7.25
2022-12-06T04:00:36.126Z,7.93
2022-12-06T04:03:05.756Z,8.45
2022-12-06T04:05:33.905Z,8.18
2022-12-06T04:08:02.065Z,8.68
2022-12-06T04:10:30.363Z,9.00
2022-12-06T04:13:05.983Z,9.68
2022-12-06T04:15:36.181Z,8.20
2022-12-06T04:18:14.203Z,8.98
2022-12-06T04:21:15.259Z,8.80
2022-12-06T04:23:45.216Z,10.30
2022-12-06T04:26:15.689Z,9.95
2022-12-06T04:29:01.526Z,9.57
2022-12-06T04:31:47.076Z,9.30
2022-12-06T04:34:35.054Z,9.25
2022-12-06T04:37:21.254Z,10.63
2022-12-06T04:39:49.674Z,10.27
2022-12-06T04:42:35.437Z,10.45
2022-12-06T04:45:04.415Z,11.05
2022-12-06T04:47:32.848Z,12.30
2022-12-06T04:50:02.734Z,11.65
2022-12-06T04:52:35.382Z,12.45
2022-12-06T04:55:04.347Z,11.60
2022-12-06T04:57:32.602Z,9.98
2022-12-06T05:00:01.382Z,10.90
2022-12-06T05:02:29.872Z,10.48
2022-12-06T05:04:58.045Z,10.52
2022-12-06T05:07:27.565Z,10.20
2022-12-06T05:09:55.663Z,9.85
2022-12-06T05:12:23.751Z,9.45
2022-12-06T05:14:51.970Z,9.80
2022-12-06T05:17:20.100Z,9.77
2022-12-06T05:19:48.286Z,9.85
2022-12-06T05:22:16.485Z,10.88
2022-12-06T05:24:46.081Z,9.50
2022-12-06T05:27:14.162Z,11.38
2022-12-06T05:29:42.348Z,10.85
2022-12-06T05:32:10.517Z,11.75
2022-12-06T05:34:38.720Z,13.48
2022-12-06T05:37:06.894Z,10.20
2022-12-06T05:39:35.047Z,11.30
2022-12-06T05:42:04.755Z,11.13
2022-12-06T05:44:32.989Z,10.70
2022-12-06T05:47:01.217Z,11.93
2022-12-06T05:49:29.447Z,11.77
2022-12-06T05:52:02.516Z,11.15
2022-12-06T05:54:32.064Z,12.48
2022-12-06T05:57:00.159Z,12.00
2022-12-06T05:59:29.873Z,11.98
2022-12-06T06:01:58.194Z,11.93
2022-12-06T06:04:26.548Z,13.40
2022-12-06T06:06:54.662Z,13.05
2022-12-06T06:09:22.825Z,13.70
2022-12-06T06:11:50.936Z,13.70
2022-12-06T06:14:19.115Z,12.20
2022-12-06T06:16:48.730Z,14.25
2022-12-06T06:19:16.902Z,11.65
2022-12-06T06:21:45.007Z,11.88
2022-12-06T06:24:13.166Z,10.02
2022-12-06T06:26:41.399Z,11.00
2022-12-06T06:29:09.763Z,9.27
2022-12-06T06:31:37.949Z,8.32
2022-12-06T06:34:07.473Z,8.57
2022-12-06T06:36:35.745Z,7.47
2022-12-06T06:39:03.869Z,7.95
2022-12-06T06:41:32.010Z,8.48
2022-12-06T06:44:00.254Z,8.45
2022-12-06T06:46:28.456Z,8.15
2022-12-06T06:48:56.584Z,7.90
2022-12-06T06:51:26.119Z,8.60
2022-12-06T06:53:54.242Z,8.27
2022-12-06T06:56:22.319Z,9.98
2022-12-06T06:58:50.537Z,9.77
2022-12-06T07:01:22.045Z,9.00
2022-12-06T07:03:51.689Z,10.20
2022-12-06T07:06:20.030Z,9.85
2022-12-06T07:08:49.646Z,10.43
2022-12-06T07:11:18.016Z,10.15
2022-12-06T07:13:51.215Z,8.93
2022-12-06T07:16:21.236Z,9.35
2022-12-06T07:18:49.590Z,10.07
2022-12-06T07:21:18.382Z,12.00
2022-12-06T07:23:46.604Z,11.57
2022-12-06T07:26:18.959Z,12.13
2022-12-06T07:28:48.916Z,12.55
2022-12-06T07:31:18.995Z,13.10
2022-12-06T07:33:47.822Z,12.18
2022-12-06T07:36:16.750Z,13.65
2022-12-06T07:38:49.678Z,13.85
2022-12-06T07:41:37.765Z,12.32
2022-12-06T07:44:31.969Z,11.52
2022-12-06T07:47:00.531Z,11.65
2022-12-06T07:49:28.881Z,10.90
2022-12-06T07:51:57.675Z,11.35
2022-12-06T07:54:26.358Z,11.55
2022-12-06T07:56:56.492Z,11.70
2022-12-06T07:59:25.670Z,9.45
2022-12-06T08:01:54.179Z,9.95
2022-12-06T08:04:22.614Z,9.93
2022-12-06T08:06:50.844Z,9.85
2022-12-06T08:09:19.082Z,10.73
2022-12-06T08:11:47.216Z,11.32
2022-12-06T08:14:16.972Z,10.88
2022-12-06T08:16:45.276Z,11.68
2022-12-06T08:19:13.390Z,9.00
2022-12-06T08:21:41.507Z,8.63
2022-12-06T08:24:09.822Z,10.40
2022-12-06T08:26:37.987Z,7.65
2022-12-06T08:29:06.224Z,6.93
2022-12-06T08:31:35.977Z,8.70
2022-12-06T08:34:05.252Z,7.20
2022-12-06T08:36:33.858Z,7.93
2022-12-06T08:39:02.129Z,7.45
2022-12-06T08:41:47.886Z,8.07
2022-12-06T08:44:17.373Z,8.38
2022-12-06T08:46:47.685Z,8.00
2022-12-06T08:49:17.635Z,7.88
2022-12-06T08:51:47.678Z,7.47
2022-12-06T08:54:18.602Z,7.32
2022-12-06T08:56:46.809Z,7.65
2022-12-06T08:59:15.420Z,8.25
2022-12-06T09:01:44.250Z,7.90
2022-12-06T09:04:14.631Z,8.15
2022-12-06T09:06:45.024Z,8.65
2022-12-06T09:09:14.633Z,7.50
2022-12-06T09:11:43.781Z,7.03
2022-12-06T09:14:20.935Z,8.10
2022-12-06T09:16:51.090Z,8.18
2022-12-06T09:19:21.255Z,8.02
2022-12-06T09:21:49.466Z,7.32
2022-12-06T09:24:19.551Z,9.50
2022-12-06T09:26:48.375Z,10.52
2022-12-06T09:29:18.362Z,7.80
2022-12-06T09:31:46.682Z,8.68
2022-12-06T09:34:15.330Z,8.15
2022-12-06T09:36:49.567Z,8.80
2022-12-06T09:39:22.526Z,9.07
2022-12-06T09:42:15.827Z,7.38
2022-12-06T09:45:11.626Z,9.65
2022-12-06T09:47:57.174Z,7.43
2022-12-06T09:50:33.754Z,9.88
2022-12-06T09:53:14.108Z,9.25
2022-12-06T09:55:53.659Z,7.93
2022-12-06T09:58:33.279Z,8.15
2022-12-06T10:01:08.941Z,7.45
2022-12-06T10:03:54.858Z,10.10
2022-12-06T10:06:26.820Z,7.65
2022-12-06T10:09:13.335Z,8.32
2022-12-06T10:11:58.188Z,7.85
2022-12-06T10:14:40.802Z,8.85
2022-12-06T10:17:19.232Z,9.95
2022-12-06T10:19:59.134Z,9.75
2022-12-06T10:22:38.286Z,8.05
2022-12-06T10:25:14.374Z,8.02
2022-12-06T10:27:49.523Z,9.85
2022-12-06T10:30:19.243Z,10.23
2022-12-06T10:32:55.659Z,8.68
2022-12-06T10:35:42.919Z,9.50
2022-12-06T10:38:23.061Z,9.20
2022-12-06T10:41:04.403Z,9.13
2022-12-06T10:43:39.349Z,8.13
2022-12-06T10:46:30.439Z,9.32
2022-12-06T10:49:07.976Z,8.70
2022-12-06T10:51:42.942Z,9.38
2022-12-06T10:54:22.181Z,8.70
2022-12-06T10:56:56.269Z,9.10
2022-12-06T10:59:37.542Z,8.38
2022-12-06T11:02:30.844Z,9.52
2022-12-06T11:05:03.940Z,9.38
2022-12-06T11:07:38.997Z,8.02
2022-12-06T11:10:18.610Z,8.98
2022-12-06T11:12:50.638Z,7.90
2022-12-06T11:15:23.239Z,11.30
2022-12-06T11:18:02.355Z,8.88
2022-12-06T11:20:35.604Z,9.27
2022-12-06T11:23:12.108Z,9.73
2022-12-06T11:25:54.366Z,7.85
2022-12-06T11:28:35.777Z,7.53
2022-12-06T11:31:10.224Z,9.57
2022-12-06T11:33:38.970Z,9.43
2022-12-06T11:36:09.156Z,9.20
2022-12-06T11:38:40.757Z,9.68
2022-12-06T11:41:12.277Z,10.30
2022-12-06T11:43:42.380Z,8.18
2022-12-06T11:46:14.657Z,9.82
2022-12-06T11:48:44.442Z,9.65
2022-12-06T11:51:18.284Z,8.98
2022-12-06T11:53:56.416Z,8.68
2022-12-06T11:56:26.718Z,10.07
2022-12-06T11:59:20.593Z,9.68
2022-12-06T12:01:50.780Z,9.38
2022-12-06T12:04:33.374Z,8.55
2022-12-06T12:07:05.754Z,8.00
2022-12-06T12:09:37.550Z,7.55
2022-12-06T12:12:15.451Z,10.05
2022-12-06T12:14:51.002Z,9.65
2022-12-06T12:17:22.947Z,8.75
2022-12-06T12:19:53.354Z,9.68
2022-12-06T12:22:30.337Z,8.77
2022-12-06T12:27:51.114Z,9.45
2022-12-06T12:30:32.773Z,9.10
2022-12-06T12:33:24.154Z,8.57
2022-12-06T12:35:55.722Z,8.15
2022-12-06T12:38:28.526Z,9.20
2022-12-06T12:40:59.661Z,9.15
2022-12-06T12:43:31.650Z,8.45
2022-12-06T12:46:18.839Z,9.05
2022-12-06T12:48:50.230Z,8.60
2022-12-06T12:51:36.857Z,8.83
2022-12-06T12:54:07.919Z,8.27
2022-12-06T12:56:37.987Z,9.82
2022-12-06T12:59:15.427Z,8.80
2022-12-06T13:01:49.031Z,9.00
2022-12-06T13:04:32.962Z,8.70
2022-12-06T13:07:05.256Z,8.70
2022-12-06T13:09:42.195Z,9.07
2022-12-06T13:12:16.000Z,8.80
2022-12-06T13:14:52.487Z,10.80
2022-12-06T13:17:26.023Z,9.43
2022-12-06T13:19:54.987Z,9.90
2022-12-06T13:22:27.500Z,9.35
2022-12-06T13:25:01.988Z,12.98
2022-12-06T13:27:36.107Z,10.43
2022-12-06T13:30:09.001Z,10.10
2022-12-06T13:32:44.865Z,9.70
2022-12-06T13:35:22.750Z,9.65
2022-12-06T13:37:56.273Z,9.43
2022-12-06T13:40:46.605Z,9.80
2022-12-06T13:43:59.951Z,9.65
2022-12-06T13:46:33.242Z,8.95
2022-12-06T13:49:19.148Z,10.43
2022-12-06T13:51:49.704Z,9.88
2022-12-06T13:54:34.484Z,8.63
2022-12-06T13:57:22.008Z,9.32
2022-12-06T13:59:50.622Z,9.30
2022-12-06T14:02:52.367Z,9.75
2022-12-06T14:08:31.370Z,10.80
2022-12-06T14:11:15.832Z,10.30
2022-12-06T14:13:46.580Z,10.15
2022-12-06T14:16:22.985Z,11.55
2022-12-06T14:18:52.328Z,11.15
2022-12-06T14:21:25.185Z,12.82
2022-12-06T14:23:53.614Z,11.85
2022-12-06T14:26:24.789Z,11.57
2022-12-06T14:28:55.120Z,11.43
2022-12-06T14:31:27.924Z,10.38
2022-12-06T14:33:57.392Z,11.65
2022-12-06T14:36:30.398Z,10.77
2022-12-06T14:39:02.212Z,9.90
2022-12-06T14:41:53.320Z,11.43
2022-12-06T14:44:28.017Z,10.73
2022-12-06T14:46:56.921Z,11.98
2022-12-06T14:49:44.475Z,12.63
2022-12-06T14:52:26.170Z,15.95
2022-12-06T14:55:08.629Z,14.45
2022-12-06T14:57:39.742Z,14.70
2022-12-06T15:00:25.294Z,14.95
2022-12-06T15:03:22.343Z,14.52
2022-12-06T15:05:57.483Z,13.77
2022-12-06T15:08:36.133Z,13.95
2022-12-06T15:11:07.013Z,14.18
2022-12-06T15:13:34.197Z,13.77
2022-12-06T15:16:06.201Z,12.68
2022-12-06T15:18:37.889Z,14.27
2022-12-06T15:21:12.502Z,14.40
2022-12-06T15:23:49.088Z,16.40
2022-12-06T15:26:17.875Z,15.10
2022-12-06T15:28:46.208Z,15.60
2022-12-06T15:31:19.581Z,14.15
2022-12-06T15:33:48.565Z,14.02
2022-12-06T15:36:19.180Z,13.20
2022-12-06T15:38:48.828Z,12.82
2022-12-06T15:41:19.657Z,11.65
2022-12-06T15:43:48.506Z,13.68
2022-12-06T15:46:19.896Z,14.23
2022-12-06T15:48:49.525Z,13.52
2022-12-06T15:51:21.137Z,14.13
2022-12-06T15:53:51.620Z,14.27
2022-12-06T15:56:22.498Z,15.23
2022-12-06T15:58:51.917Z,14.35
2022-12-06T16:01:22.717Z,15.82
2022-12-06T16:03:52.397Z,14.02
2022-12-06T16:06:22.043Z,15.48
2022-12-06T16:08:51.661Z,13.55
2022-12-06T16:11:22.999Z,15.95
2022-12-06T16:13:51.787Z,17.33
2022-12-06T16:16:20.757Z,15.80
2022-12-06T16:18:49.475Z,14.95
2022-12-06T16:21:23.578Z,16.85
2022-12-06T16:24:16.730Z,17.35
2022-12-06T16:26:46.138Z,19.63
2022-12-06T16:29:17.068Z,18.42
2022-12-06T16:31:46.041Z,20.27
2022-12-06T16:34:15.028Z,19.58
2022-12-06T16:36:57.759Z,18.40
2022-12-06T16:39:27.872Z,23.80
2022-12-06T16:41:56.354Z,19.27
2022-12-06T16:44:24.633Z,20.17
2022-12-06T16:46:53.383Z,20.50
2022-12-06T16:52:12.276Z,20.25
2022-12-06T16:54:42.406Z,20.38
2022-12-06T16:57:11.952Z,17.83
2022-12-06T16:59:40.609Z,17.95
2022-12-06T17:02:24.417Z,18.48
2022-12-06T17:04:52.748Z,18.50
2022-12-06T17:07:20.986Z,17.98
2022-12-06T17:09:50.624Z,19.95
2022-12-06T17:12:19.029Z,18.27
2022-12-06T17:14:47.484Z,16.90
2022-12-06T17:17:16.944Z,17.40
2022-12-06T17:19:45.431Z,18.85
2022-12-06T17:22:16.741Z,18.67
2022-12-06T17:24:45.453Z,21.17
2022-12-06T17:27:15.640Z,17.88
2022-12-06T17:29:44.599Z,19.52
2022-12-06T17:32:13.047Z,16.23
2022-12-06T17:34:41.231Z,17.60
2022-12-06T17:37:09.462Z,16.73
2022-12-06T17:39:38.044Z,17.25
2022-12-06T17:42:24.192Z,17.73
2022-12-06T17:44:53.906Z,15.82
2022-12-06T17:47:22.307Z,18.60
2022-12-06T17:49:50.562Z,17.73
2022-12-06T17:52:19.130Z,18.55
2022-12-06T17:54:47.374Z,17.90
2022-12-06T17:57:18.361Z,20.25
2022-12-06T17:59:48.420Z,17.48
2022-12-06T18:02:20.142Z,18.20
2022-12-06T18:04:49.016Z,20.25
2022-12-06T18:07:18.748Z,17.52
2022-12-06T18:09:47.118Z,19.60
2022-12-06T18:12:17.082Z,18.58
2022-12-06T18:14:45.612Z,18.42
2022-12-06T18:17:14.382Z,17.95
2022-12-06T18:19:46.842Z,18.58
2022-12-06T18:22:15.570Z,19.77
2022-12-06T18:24:44.741Z,18.45
2022-12-06T18:27:13.154Z,18.80
2022-12-06T18:29:41.412Z,19.60
2022-12-06T18:32:09.740Z,19.20
2022-12-06T18:34:38.155Z,18.30
2022-12-06T18:37:07.742Z,19.65
2022-12-06T18:39:35.911Z,19.88
2022-12-06T18:42:04.320Z,18.35
2022-12-06T18:44:32.584Z,17.75
2022-12-06T18:47:00.962Z,19.60
2022-12-06T18:49:29.159Z,20.15
2022-12-06T18:51:57.531Z,20.00
2022-12-06T18:54:28.364Z,20.80
2022-12-06T18:56:58.145Z,21.20
2022-12-06T18:59:27.957Z,21.33
2022-12-06T19:01:57.161Z,22.10
2022-12-06T19:04:25.415Z,21.75
2022-12-06T19:06:54.406Z,20.58
2022-12-06T19:09:23.630Z,19.48
2022-12-06T19:11:53.231Z,20.50
2022-12-06T19:14:23.123Z,19.10
2022-12-06T19:16:53.160Z,19.92
2022-12-06T19:19:22.874Z,18.70
2022-12-06T19:21:52.587Z,19.77
2022-12-06T19:24:23.559Z,18.67
2022-12-06T19:26:54.575Z,18.55
2022-12-06T19:29:23.276Z,17.10
2022-12-06T19:31:52.569Z,16.70
2022-12-06T19:34:22.813Z,18.17
2022-12-06T19:36:52.519Z,16.65
2022-12-06T19:39:21.711Z,17.98
2022-12-06T19:42:07.556Z,18.33
2022-12-06T19:44:37.095Z,22.48
2022-12-06T19:47:06.021Z,19.90
2022-12-06T19:49:34.535Z,21.77
2022-12-06T19:52:02.846Z,18.15
2022-12-06T19:54:32.845Z,20.55
2022-12-06T19:57:02.076Z,17.95
2022-12-06T19:59:32.609Z,19.52
2022-12-06T20:02:02.702Z,19.55
2022-12-06T20:04:34.362Z,18.58
2022-12-06T20:07:04.023Z,18.65
2022-12-06T20:09:32.830Z,18.27
2022-12-06T20:12:03.902Z,18.63
2022-12-06T20:14:37.733Z,19.60
2022-12-06T20:17:09.556Z,17.55
2022-12-06T20:19:38.684Z,19.45
2022-12-06T20:22:07.010Z,18.25
2022-12-06T20:24:35.232Z,18.08
2022-12-06T20:27:03.867Z,18.38
2022-12-06T20:29:32.766Z,17.23
2022-12-06T20:32:01.976Z,15.40
2022-12-06T20:34:34.469Z,15.45
2022-12-06T20:37:04.652Z,15.30
2022-12-06T20:39:35.700Z,15.95
2022-12-06T20:42:05.877Z,13.90
2022-12-06T20:44:35.184Z,13.90
2022-12-06T20:47:03.451Z,15.00
2022-12-06T20:49:33.236Z,13.52
2022-12-06T20:52:02.892Z,16.30
2022-12-06T20:54:31.257Z,14.77
2022-12-06T20:56:59.489Z,15.10
2022-12-06T20:59:29.346Z,15.27
2022-12-06T21:01:57.767Z,16.13
2022-12-06T21:04:26.631Z,16.02
2022-12-06T21:06:56.911Z,15.98
2022-12-06T21:09:25.260Z,15.68
2022-12-06T21:11:53.447Z,14.45
2022-12-06T21:14:22.147Z,12.95
2022-12-06T21:16:50.386Z,14.43
2022-12-06T21:19:20.577Z,14.65
2022-12-06T21:21:51.448Z,13.40
2022-12-06T21:24:22.876Z,14.38
2022-12-06T21:26:51.335Z,12.75
2022-12-06T21:29:28.173Z,15.98
2022-12-06T21:31:58.945Z,12.90
2022-12-06T21:34:27.110Z,13.50
2022-12-06T21:36:55.318Z,14.60
2022-12-06T21:39:24.917Z,15.32
2022-12-06T21:41:53.973Z,14.50
2022-12-06T21:44:22.273Z,17.27
2022-12-06T21:46:53.226Z,16.10
2022-12-06T21:49:21.564Z,15.00
2022-12-06T21:51:51.130Z,15.10
2022-12-06T21:54:22.073Z,15.55
2022-12-06T21:56:52.071Z,16.17
2022-12-06T21:59:20.332Z,14.85
2022-12-06T22:01:51.602Z,17.90
2022-12-06T22:04:20.184Z,15.40
2022-12-06T22:06:48.379Z,16.25
2022-12-06T22:09:16.666Z,17.83
2022-12-06T22:11:45.171Z,18.90
2022-12-06T22:14:14.831Z,19.05
2022-12-06T22:16:43.122Z,18.27
2022-12-06T22:19:11.235Z,17.83
2022-12-06T22:21:39.407Z,18.17
2022-12-06T22:24:08.299Z,19.10
2022-12-06T22:26:36.824Z,19.08
2022-12-06T22:29:05.034Z,16.83
2022-12-06T22:31:35.340Z,17.40
2022-12-06T22:34:04.247Z,17.95
2022-12-06T22:36:33.736Z,18.27
2022-12-06T22:39:03.681Z,18.75
2022-12-06T22:41:32.557Z,17.60
2022-12-06T22:44:02.693Z,17.00
2022-12-06T22:46:32.408Z,16.90
2022-12-06T22:49:02.607Z,15.70
2022-12-06T22:51:32.086Z,17.45
2022-12-06T22:54:02.485Z,16.85
2022-12-06T22:56:33.215Z,17.23
2022-12-06T22:59:02.668Z,17.05
2022-12-06T23:01:33.094Z,15.45
2022-12-06T23:04:05.119Z,16.80
2022-12-06T23:06:34.524Z,15.93
2022-12-06T23:09:03.480Z,13.50
2022-12-06T23:11:33.285Z,14.38
2022-12-06T23:14:02.934Z,14.88
2022-12-06T23:16:32.098Z,14.60
2022-12-06T23:19:02.930Z,14.30
2022-12-06T23:21:32.904Z,13.43
2022-12-06T23:24:03.709Z,14.68
2022-12-06T23:26:34.660Z,14.80
2022-12-06T23:29:02.920Z,14.38
2022-12-06T23:31:33.047Z,13.90
2022-12-06T23:34:04.506Z,12.90
2022-12-06T23:36:34.431Z,14.32
2022-12-06T23:39:03.066Z,15.55
2022-12-06T23:41:32.495Z,13.90
2022-12-06T23:44:00.978Z,16.00
2022-12-06T23:46:30.808Z,13.63
2022-12-06T23:48:59.276Z,16.00
2022-12-06T23:51:31.903Z,13.80
2022-12-06T23:54:01.543Z,14.23
2022-12-06T23:56:31.775Z,14.50
2022-12-06T23:59:01.197Z,14.65
